Time;durP1;ratioP1;P1;durP2;ratioP2;P2;SDS_P1;SDS_P2;PMS_P1;PMS_P2;Temp;Humidity;BMP_temperature;BMP_pressure;BME280_temperature;BME280_humidity;BME280_pressure;Samples;Min_cycle;Max_cycle;Signal;HPM_P1;HPM_P2
2022/11/22 00:01:04;;;;;;;8.60;8.00;;;;;;;;;;4995786;28;20022;-59
2022/11/22 00:03:29;;;;;;;8.38;7.78;;;;;;;;;;4998026;28;20202;-58
2022/11/22 00:05:55;;;;;;;8.75;8.15;;;;;;;;;;4992545;28;20385;-59
2022/11/22 00:08:21;;;;;;;8.75;8.15;;;;;;;;;;4994782;28;20068;-59
2022/11/22 00:10:50;;;;;;;8.63;8.07;;;;;;;;;;4992516;28;20030;-59
2022/11/22 00:13:18;;;;;;;8.95;8.35;;;;;;;;;;4994665;28;20037;-59
2022/11/22 00:15:44;;;;;;;8.95;8.35;;;;;;;;;;4993442;28;20056;-59
2022/11/22 00:18:10;;;;;;;8.80;8.20;;;;;;;;;;4993661;28;20037;-59
2022/11/22 00:20:36;;;;;;;8.82;8.25;;;;;;;;;;4990590;28;20029;-59
2022/11/22 00:23:01;;;;;;;8.15;7.65;;;;;;;;;;4994274;28;20030;-59
2022/11/22 00:25:26;;;;;;;8.85;8.27;;;;;;;;;;4990266;28;20429;-59
2022/11/22 00:27:52;;;;;;;8.13;7.63;;;;;;;;;;4995023;28;20026;-59
2022/11/22 00:30:18;;;;;;;8.93;8.32;;;;;;;;;;4993166;28;20030;-59
2022/11/22 00:32:43;;;;;;;9.60;8.75;;;;;;;;;;4993982;28;20022;-59
2022/11/22 00:35:09;;;;;;;8.43;7.93;;;;;;;;;;4990846;28;20045;-59
2022/11/22 00:37:36;;;;;;;9.57;8.90;;;;;;;;;;4994564;28;20030;-59
2022/11/22 00:40:01;;;;;;;8.95;8.35;;;;;;;;;;4996058;28;20171;-59
2022/11/22 00:42:27;;;;;;;8.95;8.35;;;;;;;;;;4992993;28;20038;-59
2022/11/22 00:44:52;;;;;;;9.43;8.82;;;;;;;;;;4995210;28;20034;-59
2022/11/22 00:47:17;;;;;;;8.80;8.20;;;;;;;;;;4994205;28;20048;-59
2022/11/22 00:49:43;;;;;;;8.98;8.38;;;;;;;;;;4994219;28;20042;-59
2022/11/22 00:52:08;;;;;;;8.23;7.72;;;;;;;;;;4993923;28;20049;-59
2022/11/22 00:54:34;;;;;;;8.10;7.60;;;;;;;;;;4993268;28;20526;-59
2022/11/22 00:56:59;;;;;;;8.00;7.50;;;;;;;;;;4994066;28;20373;-59
2022/11/22 00:59:25;;;;;;;10.00;9.05;;;;;;;;;;4995844;28;20030;-59
2022/11/22 01:01:50;;;;;;;8.10;7.60;;;;;;;;;;4994745;28;20030;-59
2022/11/22 01:04:15;;;;;;;9.00;8.40;;;;;;;;;;4994699;28;20117;-59
2022/11/22 01:06:41;;;;;;;8.45;7.85;;;;;;;;;;4995043;28;20038;-59
2022/11/22 01:09:06;;;;;;;8.47;7.97;;;;;;;;;;4992706;28;20127;-59
2022/11/22 01:11:31;;;;;;;8.45;7.95;;;;;;;;;;4994846;28;20408;-60
2022/11/22 01:13:57;;;;;;;8.63;8.00;;;;;;;;;;4994433;28;20029;-59
2022/11/22 01:16:22;;;;;;;8.80;8.20;;;;;;;;;;4991413;28;20042;-60
2022/11/22 01:18:47;;;;;;;8.38;7.88;;;;;;;;;;4994059;28;20404;-59
2022/11/22 01:21:13;;;;;;;9.35;8.75;;;;;;;;;;4992569;28;20410;-60
2022/11/22 01:23:38;;;;;;;8.13;7.63;;;;;;;;;;4994765;28;20037;-59
2022/11/22 01:26:07;;;;;;;8.38;7.88;;;;;;;;;;4992000;28;20107;-59
2022/11/22 01:28:33;;;;;;;9.25;8.65;;;;;;;;;;4991479;28;20064;-59
2022/11/22 01:30:59;;;;;;;8.70;8.15;;;;;;;;;;4994054;28;20030;-60
2022/11/22 01:33:24;;;;;;;8.45;7.85;;;;;;;;;;4991058;28;20034;-60
2022/11/22 01:35:49;;;;;;;9.13;8.48;;;;;;;;;;4993560;28;20048;-59
2022/11/22 01:38:15;;;;;;;9.40;8.80;;;;;;;;;;4991094;28;20037;-59
2022/11/22 01:40:40;;;;;;;8.38;7.88;;;;;;;;;;4993071;28;20025;-59
2022/11/22 01:43:16;;;;;;;8.18;7.68;;;;;;;;;;4992769;28;20030;-63
2022/11/22 01:45:47;;;;;;;8.60;8.00;;;;;;;;;;4994587;28;20033;-60
2022/11/22 01:48:20;;;;;;;8.85;8.25;;;;;;;;;;4993652;28;20057;-62
2022/11/22 01:50:50;;;;;;;8.25;7.65;;;;;;;;;;4991661;28;20404;-60
2022/11/22 01:53:21;;;;;;;8.55;8.05;;;;;;;;;;4994368;28;20530;-60
2022/11/22 01:55:48;;;;;;;;;;;;;;;;;;4993195;28;20041;-60
2022/11/22 01:58:14;;;;;;;8.68;8.10;;;;;;;;;;4982835;28;19910;-60
2022/11/22 02:00:42;;;;;;;7.97;7.47;;;;;;;;;;4992399;28;20301;-61
2022/11/22 02:03:11;;;;;;;8.68;8.10;;;;;;;;;;4993585;28;20038;-62
2022/11/22 02:05:37;;;;;;;8.13;7.63;;;;;;;;;;4992126;28;20034;-61
2022/11/22 02:08:14;;;;;;;9.57;8.88;;;;;;;;;;4993970;28;20365;-60
2022/11/22 02:10:45;;;;;;;8.82;8.23;;;;;;;;;;4991375;28;20031;-60
2022/11/22 02:13:13;;;;;;;8.98;8.38;;;;;;;;;;4991753;28;20038;-61
2022/11/22 02:15:39;;;;;;;8.32;7.82;;;;;;;;;;4994933;28;20042;-61
2022/11/22 02:18:04;;;;;;;9.02;8.43;;;;;;;;;;4991886;28;20029;-61
2022/11/22 02:20:30;;;;;;;8.77;8.18;;;;;;;;;;4994817;28;20188;-60
2022/11/22 02:23:09;;;;;;;8.85;8.25;;;;;;;;;;4993871;28;20060;-60
2022/11/22 02:25:35;;;;;;;8.93;8.32;;;;;;;;;;4992047;28;20064;-61
2022/11/22 02:28:00;;;;;;;8.90;8.30;;;;;;;;;;4994160;28;20120;-60
2022/11/22 02:30:26;;;;;;;8.18;7.68;;;;;;;;;;4979815;28;20250;-61
2022/11/22 02:32:51;;;;;;;8.25;7.75;;;;;;;;;;4993275;28;20029;-60
2022/11/22 02:35:19;;;;;;;9.57;8.98;;;;;;;;;;4990967;28;20031;-62
2022/11/22 02:37:47;;;;;;;9.63;9.02;;;;;;;;;;4993130;28;20116;-61
2022/11/22 02:40:15;;;;;;;10.15;9.32;;;;;;;;;;4994366;28;20380;-62
2022/11/22 02:42:48;;;;;;;8.75;8.15;;;;;;;;;;4995970;28;20029;-61
2022/11/22 02:45:13;;;;;;;10.00;9.40;;;;;;;;;;4997682;28;20042;-61
2022/11/22 02:47:39;;;;;;;8.80;8.20;;;;;;;;;;4995087;28;20068;-61
2022/11/22 02:50:05;;;;;;;9.20;8.60;;;;;;;;;;5003879;28;20042;-61
2022/11/22 02:52:30;;;;;;;9.40;8.60;;;;;;;;;;4997250;28;20096;-60
2022/11/22 02:54:55;;;;;;;9.00;8.40;;;;;;;;;;4997491;28;20415;-61
2022/11/22 02:57:21;;;;;;;9.32;8.70;;;;;;;;;;4997371;28;20045;-61
2022/11/22 02:59:46;;;;;;;9.45;8.85;;;;;;;;;;4998123;28;20026;-61
2022/11/22 03:02:12;;;;;;;9.23;8.52;;;;;;;;;;4994667;28;20074;-60
2022/11/22 03:04:38;;;;;;;9.13;8.52;;;;;;;;;;4996703;28;20090;-61
2022/11/22 03:07:04;;;;;;;9.93;9.18;;;;;;;;;;5003656;28;20133;-60
2022/11/22 03:09:30;;;;;;;9.85;9.15;;;;;;;;;;4997219;28;20026;-61
2022/11/22 03:11:56;;;;;;;9.50;8.90;;;;;;;;;;4993191;28;20023;-61
2022/11/22 03:14:22;;;;;;;10.13;9.52;;;;;;;;;;4994569;28;20113;-60
2022/11/22 03:16:48;;;;;;;9.52;8.93;;;;;;;;;;4994994;28;20146;-61
2022/11/22 03:19:14;;;;;;;9.13;8.52;;;;;;;;;;4993091;28;20129;-61
2022/11/22 03:21:41;;;;;;;10.45;9.85;;;;;;;;;;4995175;28;20034;-60
2022/11/22 03:24:08;;;;;;;9.48;8.88;;;;;;;;;;4993229;28;20156;-61
2022/11/22 03:26:34;;;;;;;8.65;8.05;;;;;;;;;;4997436;28;20034;-61
2022/11/22 03:29:00;;;;;;;8.90;8.30;;;;;;;;;;4995689;28;20116;-61
2022/11/22 03:31:26;;;;;;;9.05;8.45;;;;;;;;;;4980186;28;20125;-61
2022/11/22 03:33:52;;;;;;;8.52;7.97;;;;;;;;;;4998854;28;20065;-61
2022/11/22 03:36:17;;;;;;;8.63;8.02;;;;;;;;;;4997193;28;20448;-61
2022/11/22 03:38:43;;;;;;;9.60;8.90;;;;;;;;;;4995268;28;20323;-61
2022/11/22 03:41:08;;;;;;;10.93;10.10;;;;;;;;;;4995702;28;20368;-61
2022/11/22 03:43:34;;;;;;;9.23;8.63;;;;;;;;;;4995960;28;20038;-61
2022/11/22 03:45:59;;;;;;;8.90;8.30;;;;;;;;;;4997926;28;20059;-61
2022/11/22 03:48:25;;;;;;;8.50;7.90;;;;;;;;;;4995397;28;20057;-61
2022/11/22 03:50:50;;;;;;;9.15;8.55;;;;;;;;;;4996198;28;20088;-60
2022/11/22 03:53:16;;;;;;;9.23;8.63;;;;;;;;;;5000573;28;20835;-61
2022/11/22 03:55:41;;;;;;;8.82;8.23;;;;;;;;;;4993286;28;20044;-61
2022/11/22 03:58:07;;;;;;;9.30;8.70;;;;;;;;;;4994542;28;20483;-61
2022/11/22 04:00:33;;;;;;;10.48;9.60;;;;;;;;;;4994254;28;20037;-61
2022/11/22 04:02:59;;;;;;;8.80;8.20;;;;;;;;;;5010914;28;20026;-61
2022/11/22 04:05:24;;;;;;;8.93;8.32;;;;;;;;;;4993409;28;20015;-61
2022/11/22 04:07:54;;;;;;;9.25;8.65;;;;;;;;;;4992617;28;20033;-61
2022/11/22 04:10:22;;;;;;;9.25;8.65;;;;;;;;;;4993661;28;20018;-61
2022/11/22 04:12:48;;;;;;;9.63;9.02;;;;;;;;;;4992418;28;20054;-61
2022/11/22 04:15:13;;;;;;;8.88;8.27;;;;;;;;;;4993627;28;20245;-61
2022/11/22 04:17:40;;;;;;;9.35;8.75;;;;;;;;;;4994118;28;20042;-61
2022/11/22 04:23:04;;;;;;;9.85;9.25;;;;;;;;;;4994826;28;20069;-61
2022/11/22 04:25:30;;;;;;;9.05;8.45;;;;;;;;;;4994402;28;20041;-61
2022/11/22 04:27:56;;;;;;;9.40;8.80;;;;;;;;;;4993264;28;20030;-61
2022/11/22 04:33:08;;;;;;;9.30;8.70;;;;;;;;;;4994690;28;20033;-61
2022/11/22 04:35:33;;;;;;;9.07;8.48;;;;;;;;;;4995046;28;20118;-62
2022/11/22 04:37:59;;;;;;;9.35;8.75;;;;;;;;;;4995502;28;20027;-61
2022/11/22 04:40:24;;;;;;;9.27;8.68;;;;;;;;;;4994046;28;20061;-61
2022/11/22 04:45:33;;;;;;;9.80;9.20;;;;;;;;;;4994863;28;20336;-61
2022/11/22 04:47:59;;;;;;;9.45;8.75;;;;;;;;;;4990665;28;20077;-61
2022/11/22 04:53:10;;;;;;;9.13;8.52;;;;;;;;;;4994650;28;20061;-61
2022/11/22 04:55:36;;;;;;;9.98;9.30;;;;;;;;;;4994655;28;20072;-61
2022/11/22 04:58:01;;;;;;;9.10;8.50;;;;;;;;;;4993959;28;20069;-62
2022/11/22 05:00:27;;;;;;;9.23;8.63;;;;;;;;;;4994797;28;20360;-61
2022/11/22 05:02:53;;;;;;;8.98;8.38;;;;;;;;;;4993883;28;20359;-61
2022/11/22 05:05:18;;;;;;;9.82;9.23;;;;;;;;;;4995353;28;20038;-61
2022/11/22 05:07:44;;;;;;;8.80;8.20;;;;;;;;;;4993185;28;20530;-61
2022/11/22 05:10:10;;;;;;;9.05;8.45;;;;;;;;;;4994162;28;20048;-61
2022/11/22 05:12:36;;;;;;;9.30;8.70;;;;;;;;;;4993506;28;20117;-61
2022/11/22 05:15:02;;;;;;;9.32;8.73;;;;;;;;;;4995028;28;20133;-61
2022/11/22 05:17:27;;;;;;;8.73;8.13;;;;;;;;;;4995486;28;20114;-61
2022/11/22 05:19:53;;;;;;;9.13;8.52;;;;;;;;;;4993567;28;20034;-61
2022/11/22 05:23:53;;;;;;;8.90;8.30;;;;;;;;;;4992131;28;21057;-62
2022/11/22 05:25:04;;;;;;;9.80;9.10;;;;;;;;;;4993723;28;20029;-61
2022/11/22 05:27:29;;;;;;;9.75;9.15;;;;;;;;;;4992072;28;20030;-61
2022/11/22 05:29:55;;;;;;;9.85;8.77;;;;;;;;;;4991442;28;20044;-61
2022/11/22 05:32:20;;;;;;;10.57;9.77;;;;;;;;;;4994640;28;20168;-61
2022/11/22 05:34:45;;;;;;;10.13;9.40;;;;;;;;;;4994153;28;20041;-60
2022/11/22 05:37:10;;;;;;;9.82;9.23;;;;;;;;;;4991610;28;20037;-61
2022/11/22 05:39:36;;;;;;;9.77;9.18;;;;;;;;;;4993115;28;20030;-60
2022/11/22 05:42:04;;;;;;;9.45;8.85;;;;;;;;;;4994166;28;20465;-61
2022/11/22 05:44:30;;;;;;;8.68;8.15;;;;;;;;;;4993036;28;20041;-61
2022/11/22 05:46:55;;;;;;;9.30;8.70;;;;;;;;;;4992634;28;20033;-61
2022/11/22 05:49:20;;;;;;;9.15;8.50;;;;;;;;;;4992488;28;20438;-61
2022/11/22 05:51:46;;;;;;;9.68;9.07;;;;;;;;;;4991751;28;20084;-61
2022/11/22 05:54:11;;;;;;;9.48;8.88;;;;;;;;;;4997832;28;20030;-61
2022/11/22 05:56:37;;;;;;;9.15;8.55;;;;;;;;;;4995355;28;20088;-61
2022/11/22 05:59:03;;;;;;;9.23;8.63;;;;;;;;;;4994542;28;20115;-60
2022/11/22 06:01:28;;;;;;;9.90;9.20;;;;;;;;;;4993553;28;20070;-61
2022/11/22 06:03:54;;;;;;;10.32;9.63;;;;;;;;;;4993306;28;20787;-61
2022/11/22 06:06:20;;;;;;;8.77;8.18;;;;;;;;;;4990983;28;20337;-61
2022/11/22 06:08:46;;;;;;;9.38;8.77;;;;;;;;;;4994102;28;20042;-61
2022/11/22 06:11:22;;;;;;;9.90;9.30;;;;;;;;;;4989420;28;20034;-60
2022/11/22 06:13:50;;;;;;;9.52;8.93;;;;;;;;;;4997115;28;20460;-61
2022/11/22 06:16:16;;;;;;;9.23;8.63;;;;;;;;;;4993872;28;20030;-60
2022/11/22 06:18:42;;;;;;;10.60;9.90;;;;;;;;;;4993257;28;20095;-61
2022/11/22 06:21:11;;;;;;;10.50;9.52;;;;;;;;;;4995080;28;20026;-61
2022/11/22 06:23:37;;;;;;;9.70;9.00;;;;;;;;;;4993616;28;20037;-61
2022/11/22 06:26:08;;;;;;;9.85;9.25;;;;;;;;;;4994602;28;20073;-60
2022/11/22 06:28:35;;;;;;;8.55;8.05;;;;;;;;;;4995451;28;20139;-60
2022/11/22 06:31:02;;;;;;;10.80;10.10;;;;;;;;;;4995759;28;20035;-61
2022/11/22 06:33:27;;;;;;;10.07;9.48;;;;;;;;;;4997608;28;20163;-60
2022/11/22 06:35:52;;;;;;;9.02;8.43;;;;;;;;;;4995811;28;20125;-60
2022/11/22 06:38:18;;;;;;;9.55;8.95;;;;;;;;;;4996711;28;20033;-61
2022/11/22 06:40:43;;;;;;;8.95;8.35;;;;;;;;;;4997454;28;20133;-60
2022/11/22 06:43:09;;;;;;;10.15;9.43;;;;;;;;;;4997050;28;20106;-61
2022/11/22 06:45:34;;;;;;;10.85;10.05;;;;;;;;;;4996089;28;20041;-62
2022/11/22 06:47:59;;;;;;;9.25;8.65;;;;;;;;;;4995774;28;20583;-61
2022/11/22 06:50:25;;;;;;;9.52;8.85;;;;;;;;;;4993650;28;20059;-61
2022/11/22 06:52:51;;;;;;;8.32;7.82;;;;;;;;;;4996767;28;20038;-61
2022/11/22 06:55:17;;;;;;;9.20;8.60;;;;;;;;;;4994750;28;20663;-61
2022/11/22 06:57:42;;;;;;;9.80;9.20;;;;;;;;;;4994469;28;20038;-60
2022/11/22 07:00:09;;;;;;;10.10;9.40;;;;;;;;;;4998329;28;20129;-61
2022/11/22 07:02:34;;;;;;;9.45;8.85;;;;;;;;;;4995566;28;20030;-61
2022/11/22 07:05:00;;;;;;;9.07;8.48;;;;;;;;;;4995510;28;20026;-59
2022/11/22 07:07:25;;;;;;;8.77;8.20;;;;;;;;;;4994213;28;20033;-59
2022/11/22 07:09:50;;;;;;;9.57;8.95;;;;;;;;;;4992753;28;20113;-59
2022/11/22 07:12:16;;;;;;;11.77;10.98;;;;;;;;;;4983488;28;20034;-62
2022/11/22 07:14:41;;;;;;;9.63;8.95;;;;;;;;;;4996014;28;20046;-59
2022/11/22 07:17:07;;;;;;;8.68;8.10;;;;;;;;;;4996289;28;20088;-59
2022/11/22 07:19:32;;;;;;;9.18;8.57;;;;;;;;;;4995178;28;20462;-58
2022/11/22 07:21:58;;;;;;;8.32;7.82;;;;;;;;;;5001136;28;20022;-58
2022/11/22 07:24:23;;;;;;;9.43;8.57;;;;;;;;;;4996948;28;20108;-59
2022/11/22 07:26:48;;;;;;;8.70;8.20;;;;;;;;;;4996629;28;20045;-59
2022/11/22 07:29:14;;;;;;;10.48;9.77;;;;;;;;;;4994107;28;20030;-59
2022/11/22 07:31:39;;;;;;;9.00;8.40;;;;;;;;;;4992082;28;20080;-59
2022/11/22 07:34:04;;;;;;;9.25;8.65;;;;;;;;;;4994956;28;20088;-59
2022/11/22 07:36:31;;;;;;;9.07;8.48;;;;;;;;;;4992120;28;20623;-59
2022/11/22 07:38:56;;;;;;;9.00;8.40;;;;;;;;;;4992505;28;20030;-59
2022/11/22 07:41:22;;;;;;;9.40;8.73;;;;;;;;;;4993157;28;20034;-59
2022/11/22 07:43:47;;;;;;;9.23;8.60;;;;;;;;;;4993863;28;20038;-58
2022/11/22 07:46:18;;;;;;;9.70;9.10;;;;;;;;;;4992357;28;20464;-59
2022/11/22 07:48:43;;;;;;;;;;;;;;;;;;4993123;28;20140;-59
2022/11/22 07:51:09;;;;;;;8.90;8.30;;;;;;;;;;4987557;28;20557;-59
2022/11/22 07:53:34;;;;;;;9.73;9.02;;;;;;;;;;4990861;28;20038;-59
2022/11/22 07:56:02;;;;;;;8.90;8.30;;;;;;;;;;4991382;28;20029;-59
2022/11/22 07:58:27;;;;;;;8.55;8.05;;;;;;;;;;4993262;28;20108;-59
2022/11/22 08:00:52;;;;;;;9.10;8.45;;;;;;;;;;4991005;28;20077;-59
2022/11/22 08:03:18;;;;;;;10.32;9.63;;;;;;;;;;4993764;28;20606;-59
2022/11/22 08:05:43;;;;;;;8.93;8.32;;;;;;;;;;4991990;28;20049;-59
2022/11/22 08:08:09;;;;;;;9.20;8.60;;;;;;;;;;4995267;28;20041;-59
2022/11/22 08:10:34;;;;;;;8.75;7.90;;;;;;;;;;4988140;28;20088;-59
2022/11/22 08:13:00;;;;;;;9.57;8.98;;;;;;;;;;4991084;28;20338;-59
2022/11/22 08:15:26;;;;;;;10.43;9.55;;;;;;;;;;4994170;28;20107;-59
2022/11/22 08:17:51;;;;;;;8.52;8.02;;;;;;;;;;4992938;28;20531;-59
2022/11/22 08:20:16;;;;;;;9.77;8.88;;;;;;;;;;4990577;28;20117;-59
2022/11/22 08:22:42;;;;;;;9.65;8.85;;;;;;;;;;4991540;28;20041;-59
2022/11/22 08:25:11;;;;;;;8.23;7.72;;;;;;;;;;4993888;28;20787;-59
2022/11/22 08:27:41;;;;;;;8.68;8.07;;;;;;;;;;4992358;28;20034;-59
2022/11/22 08:30:08;;;;;;;8.23;7.63;;;;;;;;;;4987643;28;20037;-59
2022/11/22 08:32:34;;;;;;;8.88;8.27;;;;;;;;;;4991495;28;20325;-59
2022/11/22 08:34:59;;;;;;;8.98;8.38;;;;;;;;;;4991927;28;20030;-59
2022/11/22 08:37:24;;;;;;;9.75;8.80;;;;;;;;;;4990712;28;20029;-59
2022/11/22 08:39:50;;;;;;;12.68;8.55;;;;;;;;;;4990728;28;20038;-59
2022/11/22 08:42:15;;;;;;;8.70;8.18;;;;;;;;;;4991548;28;20077;-59
2022/11/22 08:44:41;;;;;;;8.95;8.35;;;;;;;;;;4990878;28;20049;-60
2022/11/22 08:47:06;;;;;;;10.40;9.77;;;;;;;;;;4992708;28;20026;-59
2022/11/22 08:49:32;;;;;;;9.27;8.68;;;;;;;;;;4989980;28;20558;-59
2022/11/22 08:51:57;;;;;;;9.43;8.82;;;;;;;;;;4990110;28;20034;-59
2022/11/22 08:54:22;;;;;;;12.32;10.00;;;;;;;;;;4993168;28;20094;-59
2022/11/22 08:56:48;;;;;;;9.85;9.25;;;;;;;;;;4987842;28;20041;-59
2022/11/22 08:59:13;;;;;;;12.93;10.60;;;;;;;;;;4989897;28;20049;-59
2022/11/22 09:01:39;;;;;;;11.25;10.55;;;;;;;;;;4990038;28;20029;-59
2022/11/22 09:04:04;;;;;;;10.48;9.77;;;;;;;;;;4991125;28;20688;-59
2022/11/22 09:06:30;;;;;;;9.82;9.23;;;;;;;;;;4992287;28;20493;-59
2022/11/22 09:08:56;;;;;;;10.50;9.85;;;;;;;;;;4989658;28;20029;-59
2022/11/22 09:11:24;;;;;;;10.25;9.65;;;;;;;;;;4979831;28;20418;-59
2022/11/22 09:13:49;;;;;;;11.40;10.48;;;;;;;;;;4993117;28;20121;-59
2022/11/22 09:16:17;;;;;;;9.45;8.85;;;;;;;;;;4992287;28;20038;-58
2022/11/22 09:18:43;;;;;;;10.48;9.55;;;;;;;;;;4992586;28;20045;-59
2022/11/22 09:21:14;;;;;;;9.68;8.98;;;;;;;;;;4990892;28;20400;-59
2022/11/22 09:23:40;;;;;;;9.40;8.80;;;;;;;;;;4993054;28;20422;-59
2022/11/22 09:26:08;;;;;;;12.32;9.52;;;;;;;;;;4994219;28;20022;-59
2022/11/22 09:28:34;;;;;;;10.00;9.20;;;;;;;;;;4991521;28;20073;-59
2022/11/22 09:31:18;;;;;;;9.50;8.90;;;;;;;;;;4996331;28;20042;-59
2022/11/22 09:33:44;;;;;;;8.15;7.65;;;;;;;;;;4993884;28;20561;-58
2022/11/22 09:36:16;;;;;;;9.70;8.98;;;;;;;;;;4992249;28;20062;-58
2022/11/22 09:38:41;;;;;;;8.45;7.95;;;;;;;;;;4994960;28;20030;-59
2022/11/22 09:41:16;;;;;;;8.15;7.55;;;;;;;;;;4992197;28;20085;-59
2022/11/22 09:44:09;;;;;;;8.10;7.60;;;;;;;;;;4994113;28;20399;-59
2022/11/22 09:47:16;;;;;;;8.63;7.93;;;;;;;;;;4963267;28;20050;-59
2022/11/22 09:50:07;;;;;;;7.88;7.38;;;;;;;;;;4993353;28;20041;-59
2022/11/22 09:52:44;;;;;;;8.45;7.85;;;;;;;;;;4990877;28;20117;-60
2022/11/22 09:55:27;;;;;;;7.55;7.05;;;;;;;;;;4998605;28;20034;-58
2022/11/22 09:58:04;;;;;;;7.50;7.00;;;;;;;;;;4996455;28;20160;-59
2022/11/22 10:00:30;;;;;;;7.85;7.35;;;;;;;;;;4997403;28;20038;-58
2022/11/22 10:03:05;;;;;;;7.65;7.15;;;;;;;;;;4998217;28;20466;-59
2022/11/22 10:05:41;;;;;;;8.27;7.70;;;;;;;;;;4999628;28;20534;-53
2022/11/22 10:08:23;;;;;;;9.88;8.98;;;;;;;;;;5012743;28;20792;-59
2022/11/22 10:10:52;;;;;;;8.25;7.72;;;;;;;;;;4998066;28;20029;-57
2022/11/22 10:13:47;;;;;;;7.75;7.25;;;;;;;;;;4999478;28;20030;-54
2022/11/22 10:16:31;;;;;;;7.38;6.88;;;;;;;;;;4994495;28;20115;-54
2022/11/22 10:19:24;;;;;;;7.53;7.03;;;;;;;;;;5000283;28;20097;-54
2022/11/22 10:21:49;;;;;;;7.90;7.40;;;;;;;;;;4997154;28;20064;-55
2022/11/22 10:24:16;;;;;;;8.02;7.53;;;;;;;;;;4997189;28;20180;-55
2022/11/22 10:26:42;;;;;;;8.18;7.57;;;;;;;;;;4998968;28;20065;-55
2022/11/22 10:29:17;;;;;;;8.10;7.32;;;;;;;;;;4995650;28;20029;-53
2022/11/22 10:31:52;;;;;;;7.90;7.40;;;;;;;;;;4994920;28;20094;-58
2022/11/22 10:34:32;;;;;;;7.85;7.35;;;;;;;;;;4998593;28;20064;-58
2022/11/22 10:37:11;;;;;;;7.30;6.80;;;;;;;;;;4991306;28;20046;-59
2022/11/22 10:39:51;;;;;;;8.10;7.60;;;;;;;;;;5000318;28;20368;-59
2022/11/22 10:42:43;;;;;;;7.45;6.95;;;;;;;;;;4995235;28;20038;-59
2022/11/22 10:45:27;;;;;;;8.07;7.53;;;;;;;;;;4995152;28;20030;-59
2022/11/22 10:48:02;;;;;;;8.38;7.80;;;;;;;;;;4997075;28;20089;-59
2022/11/22 10:50:33;;;;;;;7.57;7.07;;;;;;;;;;4993755;28;20096;-59
2022/11/22 10:53:31;;;;;;;7.72;7.22;;;;;;;;;;4990829;28;20582;-59
2022/11/22 10:56:28;;;;;;;8.32;7.72;;;;;;;;;;4988187;28;20072;-59
2022/11/22 10:59:18;;;;;;;7.68;7.18;;;;;;;;;;4989466;28;20490;-58
2022/11/22 11:01:49;;;;;;;7.85;7.25;;;;;;;;;;4994571;28;20026;-59
2022/11/22 11:04:15;;;;;;;;;;;;;;;;;;5000408;28;20037;-58
2022/11/22 11:06:50;;;;;;;8.10;7.50;;;;;;;;;;4992451;28;19917;-58
2022/11/22 11:09:22;;;;;;;8.45;7.85;;;;;;;;;;5002772;28;20053;-59
2022/11/22 11:11:50;;;;;;;6.82;6.32;;;;;;;;;;4994245;28;20348;-58
2022/11/22 11:14:28;;;;;;;7.38;6.88;;;;;;;;;;4993836;28;20030;-59
2022/11/22 11:16:53;;;;;;;7.15;6.65;;;;;;;;;;4997131;28;20030;-59
2022/11/22 11:19:21;;;;;;;7.85;7.35;;;;;;;;;;4998047;28;20065;-59
2022/11/22 11:22:23;;;;;;;6.97;6.47;;;;;;;;;;4997099;28;20087;-59
2022/11/22 11:24:48;;;;;;;8.45;7.75;;;;;;;;;;4983123;28;20088;-57
2022/11/22 11:27:16;;;;;;;7.03;6.53;;;;;;;;;;4995505;28;20113;-57
2022/11/22 11:29:48;;;;;;;7.95;7.35;;;;;;;;;;4994656;28;20069;-57
2022/11/22 11:32:19;;;;;;;7.53;7.03;;;;;;;;;;4994420;28;20109;-57
2022/11/22 11:35:00;;;;;;;7.78;7.28;;;;;;;;;;4994329;28;20054;-56
2022/11/22 11:37:35;;;;;;;7.85;7.35;;;;;;;;;;4997236;28;20048;-57
2022/11/22 11:40:05;;;;;;;8.38;7.85;;;;;;;;;;4998332;28;20052;-57
2022/11/22 11:42:33;;;;;;;7.20;6.70;;;;;;;;;;4993418;28;20034;-57
2022/11/22 11:45:22;;;;;;;7.30;6.70;;;;;;;;;;4995632;28;20104;-56
2022/11/22 11:47:47;;;;;;;7.60;7.10;;;;;;;;;;4996137;28;20045;-55
2022/11/22 11:50:21;;;;;;;8.48;7.72;;;;;;;;;;4998216;28;20065;-56
2022/11/22 11:52:53;;;;;;;8.10;7.50;;;;;;;;;;4995984;28;20038;-54
2022/11/22 11:55:18;;;;;;;7.60;7.10;;;;;;;;;;4995261;28;20452;-53
2022/11/22 11:57:44;;;;;;;8.60;8.05;;;;;;;;;;4995191;28;20113;-52
2022/11/22 12:00:34;;;;;;;8.95;8.35;;;;;;;;;;4996774;28;20076;-56
2022/11/22 12:03:05;;;;;;;8.63;8.13;;;;;;;;;;4994588;28;20034;-57
2022/11/22 12:05:32;;;;;;;8.43;7.80;;;;;;;;;;4997149;28;20084;-55
2022/11/22 12:07:58;;;;;;;9.07;8.48;;;;;;;;;;4993848;28;20897;-56
2022/11/22 12:10:38;;;;;;;8.95;8.05;;;;;;;;;;4996032;28;20378;-55
2022/11/22 12:13:18;;;;;;;7.65;7.15;;;;;;;;;;4995485;28;20030;-57
2022/11/22 12:15:54;;;;;;;8.40;7.80;;;;;;;;;;4993436;28;20045;-56
2022/11/22 12:18:37;;;;;;;12.18;7.55;;;;;;;;;;4996007;28;20034;-55
2022/11/22 12:21:16;;;;;;;9.85;9.15;;;;;;;;;;4992173;28;20350;-57
2022/11/22 12:23:43;;;;;;;8.60;8.05;;;;;;;;;;4997108;28;20111;-55
2022/11/22 12:26:09;;;;;;;8.27;7.78;;;;;;;;;;4995613;28;20026;-53
2022/11/22 12:28:37;;;;;;;8.40;7.90;;;;;;;;;;4994165;28;20555;-56
2022/11/22 12:31:19;;;;;;;10.25;9.55;;;;;;;;;;4995745;28;20038;-55
2022/11/22 12:33:53;;;;;;;9.45;8.85;;;;;;;;;;4992349;28;20034;-55
2022/11/22 12:36:28;;;;;;;9.20;8.60;;;;;;;;;;4993303;28;20460;-53
2022/11/22 12:38:55;;;;;;;9.90;9.30;;;;;;;;;;4993761;28;20034;-55
2022/11/22 12:41:25;;;;;;;10.50;9.80;;;;;;;;;;4994730;28;20021;-54
2022/11/22 12:43:56;;;;;;;10.23;9.52;;;;;;;;;;4993869;28;20563;-53
2022/11/22 12:47:00;;;;;;;10.63;9.82;;;;;;;;;;4994518;28;20030;-54
2022/11/22 12:49:31;;;;;;;9.10;8.50;;;;;;;;;;4986403;28;20041;-55
2022/11/22 12:52:08;;;;;;;9.98;9.32;;;;;;;;;;4996331;28;20034;-55
2022/11/22 12:55:02;;;;;;;10.25;9.55;;;;;;;;;;5001387;28;20041;-56
2022/11/22 12:57:37;;;;;;;9.32;8.73;;;;;;;;;;4995438;28;20052;-54
2022/11/22 13:00:14;;;;;;;10.85;10.18;;;;;;;;;;4996257;28;20037;-54
2022/11/22 13:02:51;;;;;;;9.77;9.18;;;;;;;;;;4993195;28;20038;-54
2022/11/22 13:05:25;;;;;;;9.85;9.23;;;;;;;;;;4994384;28;20424;-56
2022/11/22 13:08:15;;;;;;;9.45;8.75;;;;;;;;;;4995670;28;20041;-56
2022/11/22 13:10:48;;;;;;;9.60;9.00;;;;;;;;;;4995040;28;20102;-56
2022/11/22 13:13:22;;;;;;;9.98;9.38;;;;;;;;;;4992608;28;20057;-56
2022/11/22 13:15:50;;;;;;;10.73;9.15;;;;;;;;;;4991236;28;20408;-54
2022/11/22 13:18:15;;;;;;;9.77;9.18;;;;;;;;;;4995516;28;20041;-56
2022/11/22 13:21:06;;;;;;;10.10;9.50;;;;;;;;;;4991104;28;20023;-55
2022/11/22 13:23:54;;;;;;;9.13;8.52;;;;;;;;;;4990208;28;20048;-56
2022/11/22 13:26:48;;;;;;;10.15;9.55;;;;;;;;;;4991341;28;20030;-55
2022/11/22 13:29:22;;;;;;;8.63;8.02;;;;;;;;;;4992499;28;20033;-55
2022/11/22 13:32:10;;;;;;;10.10;9.40;;;;;;;;;;4995284;28;20065;-54
2022/11/22 13:34:36;;;;;;;8.80;8.20;;;;;;;;;;4994820;28;20038;-53
2022/11/22 13:37:13;;;;;;;10.30;9.52;;;;;;;;;;4991281;28;20524;-54
2022/11/22 13:39:47;;;;;;;9.18;8.57;;;;;;;;;;4995542;28;20038;-55
2022/11/22 13:42:25;;;;;;;8.82;8.23;;;;;;;;;;4996352;28;20057;-56
2022/11/22 13:44:54;;;;;;;7.60;7.10;;;;;;;;;;4993337;28;20124;-56
2022/11/22 13:47:22;;;;;;;8.18;7.65;;;;;;;;;;4995476;28;20029;-56
2022/11/22 13:49:49;;;;;;;7.75;7.25;;;;;;;;;;4991537;28;20038;-55
2022/11/22 13:52:14;;;;;;;7.80;7.30;;;;;;;;;;5000994;28;20026;-56
2022/11/22 13:54:46;;;;;;;8.07;7.47;;;;;;;;;;4993008;28;20038;-55
2022/11/22 13:57:35;;;;;;;9.38;8.77;;;;;;;;;;4996546;28;20022;-56
2022/11/22 14:00:15;;;;;;;8.50;7.95;;;;;;;;;;4994977;28;20532;-55
2022/11/22 14:02:46;;;;;;;8.52;8.00;;;;;;;;;;4995422;28;20141;-56
2022/11/22 14:05:25;;;;;;;;;;;;;;;;;;4992969;28;20444;-56
2022/11/22 14:07:54;;;;;;;7.10;6.60;;;;;;;;;;4992482;28;20274;-55
2022/11/22 14:10:25;;;;;;;11.60;8.68;;;;;;;;;;4994348;28;20046;-54
2022/11/22 14:13:09;;;;;;;;;;;;;;;;;;4994759;28;20444;-55
2022/11/22 14:15:52;;;;;;;8.65;8.05;;;;;;;;;;4991849;28;19960;-56
2022/11/22 14:18:20;;;;;;;8.10;7.60;;;;;;;;;;4990609;28;20040;-54
2022/11/22 14:21:00;;;;;;;7.65;7.15;;;;;;;;;;4989707;28;20042;-54
2022/11/22 14:23:43;;;;;;;8.40;7.80;;;;;;;;;;4999846;28;20045;-54
2022/11/22 14:26:08;;;;;;;20.23;7.80;;;;;;;;;;4992768;28;20375;-55
2022/11/22 14:29:11;;;;;;;7.63;7.13;;;;;;;;;;4979596;28;20030;-54
2022/11/22 14:31:38;;;;;;;7.35;6.85;;;;;;;;;;4992517;28;20042;-55
2022/11/22 14:34:27;;;;;;;9.30;7.00;;;;;;;;;;4993456;28;20042;-55
2022/11/22 14:37:11;;;;;;;7.45;6.95;;;;;;;;;;4992291;28;20038;-54
2022/11/22 14:40:05;;;;;;;11.13;7.60;;;;;;;;;;4994317;28;20034;-56
2022/11/22 14:42:38;;;;;;;8.00;7.38;;;;;;;;;;4983117;28;20659;-56
2022/11/22 14:45:10;;;;;;;7.22;6.72;;;;;;;;;;4996334;28;20042;-56
2022/11/22 14:47:37;;;;;;;;;;;;;;;;;;4997826;28;20121;-56
2022/11/22 14:50:12;;;;;;;8.55;8.05;;;;;;;;;;4997410;28;19972;-54
2022/11/22 14:52:38;;;;;;;17.70;6.70;;;;;;;;;;4995353;28;20088;-55
2022/11/22 14:55:10;;;;;;;20.90;7.10;;;;;;;;;;4994344;28;20140;-54
2022/11/22 14:57:36;;;;;;;7.78;7.28;;;;;;;;;;4992529;28;20030;-54
2022/11/22 15:00:13;;;;;;;7.45;6.95;;;;;;;;;;4996958;28;20413;-55
2022/11/22 15:03:07;;;;;;;6.93;6.43;;;;;;;;;;4996746;28;20031;-55
2022/11/22 15:05:54;;;;;;;7.50;7.00;;;;;;;;;;4982799;28;20050;-56
2022/11/22 15:08:30;;;;;;;7.47;6.88;;;;;;;;;;4996055;28;20026;-56
2022/11/22 15:11:28;;;;;;;7.32;6.82;;;;;;;;;;4995671;28;20056;-55